Time;durP1;ratioP1;P1;durP2;ratioP2;P2;SDS_P1;SDS_P2;PMS_P1;PMS_P2;Temp;Humidity;BMP_temperature;BMP_pressure;BME280_temperature;BME280_humidity;BME280_pressure;Samples;Min_cycle;Max_cycle;Signal;HPM_P1;HPM_P2
2023/07/04 00:02:22;;;;;;;9.57;4.93;;;;;;;;;;5033302;28;20049;-61
2023/07/04 00:04:49;;;;;;;9.27;5.00;;;;;;;;;;5033584;28;20054;-63
2023/07/04 00:07:16;;;;;;;8.77;4.65;;;;;;;;;;5033480;28;20049;-63
2023/07/04 00:09:43;;;;;;;8.10;4.88;;;;;;;;;;5033509;28;20468;-61
2023/07/04 00:12:10;;;;;;;8.85;4.53;;;;;;;;;;5033654;28;20392;-63
2023/07/04 00:14:36;;;;;;;7.55;4.15;;;;;;;;;;5033157;28;20057;-61
2023/07/04 00:17:03;;;;;;;6.47;4.40;;;;;;;;;;5033190;28;20049;-62
2023/07/04 00:19:32;;;;;;;8.02;4.25;;;;;;;;;;5033103;28;20060;-63
2023/07/04 00:21:59;;;;;;;8.93;4.70;;;;;;;;;;5033171;28;20406;-63
2023/07/04 00:24:26;;;;;;;7.95;4.20;;;;;;;;;;5033037;28;20059;-64
2023/07/04 00:26:56;;;;;;;10.57;4.63;;;;;;;;;;5033093;28;20470;-63
2023/07/04 00:29:23;;;;;;;;;;;;;;;;;;5033618;28;20479;-62
2023/07/04 00:31:50;;;;;;;6.75;3.97;;;;;;;;;;5033430;28;19971;-59
2023/07/04 00:34:17;;;;;;;7.93;4.00;;;;;;;;;;5032300;28;20072;-59
2023/07/04 00:36:45;;;;;;;8.48;4.65;;;;;;;;;;5032819;28;20061;-58
2023/07/04 00:39:12;;;;;;;7.68;4.50;;;;;;;;;;5027331;28;20053;-59
2023/07/04 00:41:40;;;;;;;7.78;4.70;;;;;;;;;;5012819;28;20088;-58
2023/07/04 00:44:19;;;;;;;8.48;4.57;;;;;;;;;;5012916;28;20570;-59
2023/07/04 00:46:53;;;;;;;7.63;4.22;;;;;;;;;;5012899;28;20057;-59
2023/07/04 00:49:22;;;;;;;9.40;3.92;;;;;;;;;;5015273;28;20057;-59
2023/07/04 00:51:58;;;;;;;6.35;4.30;;;;;;;;;;5032457;28;20136;-60
2023/07/04 00:54:30;;;;;;;7.40;4.18;;;;;;;;;;5032308;28;20069;-58
2023/07/04 00:57:02;;;;;;;7.82;4.15;;;;;;;;;;5031468;28;20045;-59
2023/07/04 00:59:33;;;;;;;8.90;4.30;;;;;;;;;;5014105;28;20380;-60
2023/07/04 01:02:00;;;;;;;6.72;4.40;;;;;;;;;;5032220;28;20045;-59
2023/07/04 01:04:26;;;;;;;7.65;3.85;;;;;;;;;;5017904;28;20130;-59
2023/07/04 01:07:02;;;;;;;8.00;4.75;;;;;;;;;;5012082;28;20408;-59
2023/07/04 01:09:29;;;;;;;7.65;4.00;;;;;;;;;;5012583;28;20037;-59
2023/07/04 01:11:56;;;;;;;7.45;4.15;;;;;;;;;;5012173;28;20054;-58
2023/07/04 01:14:25;;;;;;;7.28;3.97;;;;;;;;;;5012312;28;20486;-59
2023/07/04 01:16:54;;;;;;;7.07;4.22;;;;;;;;;;5012687;28;20049;-60
2023/07/04 01:19:27;;;;;;;7.97;4.00;;;;;;;;;;5012143;28;20050;-59
2023/07/04 01:22:07;;;;;;;7.43;3.92;;;;;;;;;;5024049;28;20171;-59
2023/07/04 01:24:44;;;;;;;6.95;4.03;;;;;;;;;;5012661;28;22022;-59
2023/07/04 01:27:14;;;;;;;7.32;4.18;;;;;;;;;;5012506;28;20521;-58
2023/07/04 01:29:41;;;;;;;6.80;3.80;;;;;;;;;;5021407;28;20072;-59
2023/07/04 01:32:10;;;;;;;6.72;3.65;;;;;;;;;;5013095;28;20116;-59
2023/07/04 01:34:37;;;;;;;7.53;3.58;;;;;;;;;;5011737;28;20152;-60
2023/07/04 01:37:05;;;;;;;7.35;3.92;;;;;;;;;;5011976;28;20049;-59
2023/07/04 01:39:32;;;;;;;7.05;4.32;;;;;;;;;;5012354;28;20528;-60
2023/07/04 01:42:00;;;;;;;9.25;4.15;;;;;;;;;;5019934;28;20059;-59
2023/07/04 01:44:28;;;;;;;8.77;3.80;;;;;;;;;;5011924;28;20092;-59
2023/07/04 01:46:55;;;;;;;7.45;4.18;;;;;;;;;;5012774;28;20053;-59
2023/07/04 01:49:22;;;;;;;7.30;4.32;;;;;;;;;;5012256;28;20380;-59
2023/07/04 01:51:49;;;;;;;6.82;3.67;;;;;;;;;;5019878;28;20049;-59
2023/07/04 01:54:18;;;;;;;6.57;3.60;;;;;;;;;;5012273;28;20546;-59
2023/07/04 01:56:47;;;;;;;8.40;3.40;;;;;;;;;;5012281;28;20416;-60
2023/07/04 01:59:15;;;;;;;7.15;4.05;;;;;;;;;;5017959;28;20050;-59
2023/07/04 02:01:43;;;;;;;7.47;4.20;;;;;;;;;;5027365;28;20042;-59
2023/07/04 02:04:10;;;;;;;6.93;3.33;;;;;;;;;;5022756;28;20046;-60
2023/07/04 02:06:36;;;;;;;7.40;3.67;;;;;;;;;;5020174;28;20057;-60
2023/07/04 02:09:04;;;;;;;8.63;4.10;;;;;;;;;;5011607;28;20475;-60
2023/07/04 02:11:30;;;;;;;7.18;3.15;;;;;;;;;;5011430;28;20046;-59
2023/07/04 02:13:59;;;;;;;6.45;3.35;;;;;;;;;;5011546;28;20061;-60
2023/07/04 02:16:26;;;;;;;6.15;3.35;;;;;;;;;;5011423;28;20116;-60
2023/07/04 02:18:54;;;;;;;6.60;3.20;;;;;;;;;;5011607;28;20061;-60
2023/07/04 02:21:21;;;;;;;5.63;3.17;;;;;;;;;;5031243;28;20100;-60
2023/07/04 02:23:48;;;;;;;6.55;3.10;;;;;;;;;;5030536;28;20042;-60
2023/07/04 02:26:15;;;;;;;5.22;3.13;;;;;;;;;;5031161;28;20383;-60
2023/07/04 02:28:41;;;;;;;7.45;3.20;;;;;;;;;;5029593;28;20053;-60
2023/07/04 02:31:08;;;;;;;7.38;3.78;;;;;;;;;;5011205;28;20046;-60
2023/07/04 02:33:35;;;;;;;8.65;3.88;;;;;;;;;;5020118;28;20042;-60
2023/07/04 02:36:04;;;;;;;5.70;3.28;;;;;;;;;;5031013;28;20046;-60
2023/07/04 02:38:30;;;;;;;6.55;3.20;;;;;;;;;;5031180;28;20108;-60
2023/07/04 02:40:57;;;;;;;6.10;3.00;;;;;;;;;;5030965;28;20426;-60
2023/07/04 02:43:24;;;;;;;7.25;3.50;;;;;;;;;;5027091;28;20046;-59
2023/07/04 02:45:51;;;;;;;6.00;3.47;;;;;;;;;;5030455;28;20107;-60
2023/07/04 02:48:19;;;;;;;6.97;3.92;;;;;;;;;;5030823;28;20049;-60
2023/07/04 02:50:45;;;;;;;8.82;3.40;;;;;;;;;;5030431;28;20064;-59
2023/07/04 02:53:20;;;;;;;7.20;3.60;;;;;;;;;;5030914;28;20079;-61
2023/07/04 02:55:47;;;;;;;6.55;3.40;;;;;;;;;;5010783;28;20066;-60
2023/07/04 02:58:14;;;;;;;6.43;3.70;;;;;;;;;;5011832;28;20050;-59
2023/07/04 03:00:41;;;;;;;5.13;2.78;;;;;;;;;;5031980;28;20053;-59
2023/07/04 03:03:08;;;;;;;5.95;2.97;;;;;;;;;;5031144;28;20050;-59
2023/07/04 03:05:35;;;;;;;7.47;3.70;;;;;;;;;;5028431;28;20136;-59
2023/07/04 03:08:02;;;;;;;7.18;3.53;;;;;;;;;;5034325;28;20538;-61
2023/07/04 03:10:31;;;;;;;5.95;2.95;;;;;;;;;;5034404;28;20426;-60
2023/07/04 03:12:58;;;;;;;5.25;2.65;;;;;;;;;;5034084;28;20057;-60
2023/07/04 03:15:25;;;;;;;6.82;2.92;;;;;;;;;;5024086;28;20053;-59
2023/07/04 03:17:53;;;;;;;6.38;3.30;;;;;;;;;;5014140;28;20050;-58
2023/07/04 03:20:20;;;;;;;5.35;3.13;;;;;;;;;;5014536;28;20494;-60
2023/07/04 03:22:47;;;;;;;5.88;3.20;;;;;;;;;;5014006;28;20482;-60
2023/07/04 03:25:15;;;;;;;5.90;3.22;;;;;;;;;;5017976;28;20379;-60
2023/07/04 03:27:44;;;;;;;5.47;3.00;;;;;;;;;;5033184;28;20061;-60
2023/07/04 03:30:12;;;;;;;5.85;2.88;;;;;;;;;;5019483;28;20077;-57
2023/07/04 03:32:39;;;;;;;7.32;3.08;;;;;;;;;;5013885;28;20466;-59
2023/07/04 03:35:07;;;;;;;8.77;3.58;;;;;;;;;;5013689;28;20145;-59
2023/07/04 03:37:35;;;;;;;4.90;3.15;;;;;;;;;;5014056;28;20068;-59
2023/07/04 03:40:06;;;;;;;7.15;3.13;;;;;;;;;;5022920;28;20068;-58
2023/07/04 03:42:33;;;;;;;7.97;3.50;;;;;;;;;;5033606;28;20542;-58
2023/07/04 03:45:02;;;;;;;6.60;3.35;;;;;;;;;;5033365;28;20187;-59
2023/07/04 03:47:29;;;;;;;5.43;3.03;;;;;;;;;;5033360;28;20049;-58
2023/07/04 03:49:55;;;;;;;7.05;3.80;;;;;;;;;;5028443;28;20124;-58
2023/07/04 03:52:23;;;;;;;7.30;3.33;;;;;;;;;;5029418;28;20050;-62
2023/07/04 03:54:50;;;;;;;6.10;3.38;;;;;;;;;;5032769;28;20049;-59
2023/07/04 03:57:16;;;;;;;6.00;3.10;;;;;;;;;;5033455;28;20136;-58
2023/07/04 03:59:43;;;;;;;7.53;3.50;;;;;;;;;;5031660;28;20056;-59
2023/07/04 04:02:11;;;;;;;6.82;3.75;;;;;;;;;;5032733;28;20451;-61
2023/07/04 04:04:40;;;;;;;5.78;3.03;;;;;;;;;;5018030;28;20061;-60
2023/07/04 04:07:07;;;;;;;5.35;3.08;;;;;;;;;;5013664;28;20108;-60
2023/07/04 04:09:34;;;;;;;6.72;3.40;;;;;;;;;;5014485;28;20057;-60
2023/07/04 04:12:01;;;;;;;6.75;2.92;;;;;;;;;;5033130;28;20100;-60
2023/07/04 04:14:29;;;;;;;7.50;3.65;;;;;;;;;;5032484;28;20092;-60
2023/07/04 04:16:56;;;;;;;8.80;3.83;;;;;;;;;;5033032;28;20045;-60
2023/07/04 04:19:25;;;;;;;5.70;3.10;;;;;;;;;;5032803;28;20049;-60
2023/07/04 04:21:53;;;;;;;7.18;3.20;;;;;;;;;;5023070;28;20069;-60
2023/07/04 04:24:20;;;;;;;6.07;3.42;;;;;;;;;;5012784;28;20054;-60
2023/07/04 04:26:46;;;;;;;5.88;3.28;;;;;;;;;;5013017;28;20100;-60
2023/07/04 04:29:14;;;;;;;6.15;2.78;;;;;;;;;;5014033;28;20551;-60
2023/07/04 04:31:41;;;;;;;6.15;3.55;;;;;;;;;;5013712;28;20499;-59
2023/07/04 04:34:08;;;;;;;6.25;3.35;;;;;;;;;;5012597;28;20057;-59
2023/07/04 04:36:36;;;;;;;5.20;2.92;;;;;;;;;;5013018;28;20111;-60
2023/07/04 04:39:03;;;;;;;4.97;2.70;;;;;;;;;;5012671;28;20057;-60
2023/07/04 04:41:30;;;;;;;6.32;2.85;;;;;;;;;;5025865;28;20053;-58
2023/07/04 04:43:59;;;;;;;6.25;2.85;;;;;;;;;;5032224;28;20466;-59
2023/07/04 04:46:26;;;;;;;4.90;2.53;;;;;;;;;;5032389;28;20092;-60
2023/07/04 04:48:53;;;;;;;4.55;2.85;;;;;;;;;;5032166;28;20056;-59
2023/07/04 04:51:22;;;;;;;6.55;2.78;;;;;;;;;;5023752;28;20499;-60
2023/07/04 04:53:50;;;;;;;5.32;3.00;;;;;;;;;;5012796;28;20124;-60
2023/07/04 04:56:17;;;;;;;4.25;2.50;;;;;;;;;;5012331;28;20058;-59
2023/07/04 04:58:44;;;;;;;4.28;2.40;;;;;;;;;;5014168;28;20046;-60
2023/07/04 05:01:15;;;;;;;5.28;2.47;;;;;;;;;;5028141;28;20053;-59
2023/07/04 05:03:42;;;;;;;6.25;2.25;;;;;;;;;;5020301;28;20057;-58
2023/07/04 05:06:09;;;;;;;5.20;2.40;;;;;;;;;;5032174;28;20133;-59
2023/07/04 05:08:36;;;;;;;5.90;2.80;;;;;;;;;;5032006;28;20498;-59
2023/07/04 05:11:07;;;;;;;4.68;2.67;;;;;;;;;;5032373;28;20060;-59
2023/07/04 05:13:34;;;;;;;5.03;2.60;;;;;;;;;;5020600;28;20050;-59
2023/07/04 05:16:01;;;;;;;5.28;2.33;;;;;;;;;;5047167;23;20050;-80
2023/07/04 05:18:29;;;;;;;4.70;2.17;;;;;;;;;;5036857;28;20077;-81
2023/07/04 05:21:03;;;;;;;4.35;2.22;;;;;;;;;;5037388;28;20103;-81
2023/07/04 05:23:30;;;;;;;5.38;2.45;;;;;;;;;;5036508;28;20045;-80
2023/07/04 05:26:01;;;;;;;4.20;2.20;;;;;;;;;;5036760;28;20510;-79
2023/07/04 05:28:29;;;;;;;5.63;2.20;;;;;;;;;;5036055;28;20056;-81
2023/07/04 05:31:00;;;;;;;3.58;2.08;;;;;;;;;;5037249;28;20065;-78
2023/07/04 05:33:27;;;;;;;4.40;1.85;;;;;;;;;;5035406;28;20077;-80
2023/07/04 05:36:03;;;;;;;3.63;1.92;;;;;;;;;;5033852;28;20128;-78
2023/07/04 05:38:29;;;;;;;4.25;1.73;;;;;;;;;;5033702;28;20049;-79
2023/07/04 05:40:56;;;;;;;4.15;1.80;;;;;;;;;;5033525;28;20057;-79
2023/07/04 05:43:24;;;;;;;2.97;1.52;;;;;;;;;;5034137;28;20077;-79
2023/07/04 05:45:53;;;;;;;3.90;1.85;;;;;;;;;;5033689;28;20052;-80
2023/07/04 05:48:20;;;;;;;4.15;1.90;;;;;;;;;;5033412;28;20506;-79
2023/07/04 05:50:54;;;;;;;2.97;1.50;;;;;;;;;;5033011;28;20084;-79
2023/07/04 05:53:24;;;;;;;3.65;1.60;;;;;;;;;;5032746;28;20053;-80
2023/07/04 05:55:51;;;;;;;3.20;1.50;;;;;;;;;;5032552;28;20052;-78
2023/07/04 05:58:18;;;;;;;3.30;1.98;;;;;;;;;;5033367;28;20073;-81
2023/07/04 06:00:45;;;;;;;4.50;1.80;;;;;;;;;;5035199;28;20041;-79
2023/07/04 06:03:16;;;;;;;3.38;1.60;;;;;;;;;;5037051;28;20144;-79
2023/07/04 06:05:43;;;;;;;4.45;1.50;;;;;;;;;;5035695;28;20051;-79
2023/07/04 06:08:10;;;;;;;4.38;1.90;;;;;;;;;;5035793;28;20084;-79
2023/07/04 06:10:37;;;;;;;3.55;1.65;;;;;;;;;;5037637;28;20049;-79
2023/07/04 06:13:04;;;;;;;4.40;1.55;;;;;;;;;;5034808;28;20088;-80
2023/07/04 06:15:30;;;;;;;3.25;1.70;;;;;;;;;;5034568;28;20171;-79
2023/07/04 06:17:57;;;;;;;4.28;1.60;;;;;;;;;;5033474;28;20084;-80
2023/07/04 06:20:25;;;;;;;4.25;2.00;;;;;;;;;;5034071;28;20049;-78
2023/07/04 06:22:52;;;;;;;4.45;1.50;;;;;;;;;;5035491;28;20469;-78
2023/07/04 06:25:18;;;;;;;4.03;1.92;;;;;;;;;;5034067;28;20137;-80
2023/07/04 06:27:45;;;;;;;3.67;1.70;;;;;;;;;;5032213;28;20049;-79
2023/07/04 06:30:13;;;;;;;6.05;1.80;;;;;;;;;;5032190;28;20140;-79
2023/07/04 06:32:40;;;;;;;3.90;1.75;;;;;;;;;;5035326;28;20057;-80
2023/07/04 06:35:08;;;;;;;3.90;1.98;;;;;;;;;;5038316;28;20132;-79
2023/07/04 06:37:36;;;;;;;3.33;1.70;;;;;;;;;;5042560;28;20056;-79
2023/07/04 06:40:03;;;;;;;3.72;1.95;;;;;;;;;;5043493;28;20046;-79
2023/07/04 06:42:31;;;;;;;3.90;2.00;;;;;;;;;;5039487;28;20075;-79
2023/07/04 06:44:58;;;;;;;4.30;1.70;;;;;;;;;;5038096;28;20097;-79
2023/07/04 06:47:25;;;;;;;4.30;2.20;;;;;;;;;;5041556;28;20068;-80
2023/07/04 06:49:52;;;;;;;3.83;1.92;;;;;;;;;;5037749;28;20095;-79
2023/07/04 06:52:20;;;;;;;3.95;1.85;;;;;;;;;;5047872;28;20084;-80
2023/07/04 06:54:50;;;;;;;3.58;1.70;;;;;;;;;;5039077;28;20050;-78
2023/07/04 06:57:17;;;;;;;3.50;1.40;;;;;;;;;;5032610;28;20049;-78
2023/07/04 06:59:45;;;;;;;4.85;2.10;;;;;;;;;;5037340;28;20076;-81
2023/07/04 07:02:13;;;;;;;3.42;1.52;;;;;;;;;;5039965;28;20137;-80
2023/07/04 07:04:40;;;;;;;3.78;2.10;;;;;;;;;;5041511;28;20073;-80
2023/07/04 07:07:09;;;;;;;3.80;1.67;;;;;;;;;;5040625;28;20065;-79
2023/07/04 07:09:37;;;;;;;3.55;1.80;;;;;;;;;;5041065;28;20049;-79
2023/07/04 07:12:07;;;;;;;3.15;1.90;;;;;;;;;;5039988;28;20080;-79
2023/07/04 07:14:33;;;;;;;3.77;1.80;;;;;;;;;;5041327;28;20081;-80
2023/07/04 07:17:01;;;;;;;4.78;2.10;;;;;;;;;;5041134;28;20049;-81
2023/07/04 07:19:28;;;;;;;3.95;1.75;;;;;;;;;;5039665;28;20049;-83
2023/07/04 07:21:55;;;;;;;3.50;1.58;;;;;;;;;;5045091;28;20045;-81
2023/07/04 07:24:22;;;;;;;4.30;1.63;;;;;;;;;;5041022;28;20088;-79
2023/07/04 07:26:49;;;;;;;4.88;1.80;;;;;;;;;;5035798;28;20049;-81
2023/07/04 07:29:17;;;;;;;4.57;1.55;;;;;;;;;;5039458;28;20077;-80
2023/07/04 07:31:43;;;;;;;3.13;1.50;;;;;;;;;;5041282;28;20132;-81
2023/07/04 07:34:10;;;;;;;2.80;1.58;;;;;;;;;;5039980;28;20149;-80
2023/07/04 07:36:39;;;;;;;3.83;1.67;;;;;;;;;;5039344;28;20084;-80
2023/07/04 07:39:08;;;;;;;4.15;1.98;;;;;;;;;;5040379;28;20042;-80
2023/07/04 07:41:37;;;;;;;3.10;1.50;;;;;;;;;;5039926;28;20076;-81
2023/07/04 07:44:04;;;;;;;3.20;1.60;;;;;;;;;;5041723;28;20056;-81
2023/07/04 07:46:32;;;;;;;4.82;1.80;;;;;;;;;;5046148;28;20113;-82
2023/07/04 07:48:59;;;;;;;4.78;1.83;;;;;;;;;;5052293;28;20081;-81
2023/07/04 07:51:26;;;;;;;3.42;1.90;;;;;;;;;;5046883;28;20049;-79
2023/07/04 07:53:55;;;;;;;3.25;1.75;;;;;;;;;;5023156;28;20132;-82
2023/07/04 07:56:24;;;;;;;3.20;1.58;;;;;;;;;;5019843;28;20125;-79
2023/07/04 07:58:50;;;;;;;5.60;2.00;;;;;;;;;;5021274;28;20565;-81
2023/07/04 08:01:20;;;;;;;4.78;2.40;;;;;;;;;;5038794;28;20049;-83
2023/07/04 08:03:49;;;;;;;4.80;2.10;;;;;;;;;;5052197;28;20465;-81
2023/07/04 08:06:21;;;;;;;3.47;1.80;;;;;;;;;;5031825;28;20310;-82
2023/07/04 08:08:52;;;;;;;2.83;1.55;;;;;;;;;;5037571;28;20116;-84
2023/07/04 08:11:19;;;;;;;4.47;1.65;;;;;;;;;;5037911;28;20487;-82
2023/07/04 08:13:47;;;;;;;4.20;1.90;;;;;;;;;;5025746;28;20130;-87
2023/07/04 08:16:18;;;;;;;3.90;1.77;;;;;;;;;;5033769;28;20084;-87
2023/07/04 08:18:45;;;;;;;4.05;2.13;;;;;;;;;;5040981;28;20072;-79
2023/07/04 08:21:12;;;;;;;3.88;1.88;;;;;;;;;;5046943;28;20076;-83
2023/07/04 08:23:39;;;;;;;3.92;1.70;;;;;;;;;;5044515;28;20077;-78
2023/07/04 08:26:06;;;;;;;3.33;1.88;;;;;;;;;;5035287;28;20083;-80
2023/07/04 08:28:33;;;;;;;3.90;1.88;;;;;;;;;;5041513;28;20069;-80
2023/07/04 08:31:04;;;;;;;4.50;1.98;;;;;;;;;;5032287;28;20038;-81
2023/07/04 08:33:30;;;;;;;4.68;2.00;;;;;;;;;;5031121;28;20045;-80
2023/07/04 08:35:58;;;;;;;3.67;1.92;;;;;;;;;;5035412;28;20500;-80
2023/07/04 08:38:26;;;;;;;4.50;2.10;;;;;;;;;;5034990;28;20480;-80
2023/07/04 08:40:54;;;;;;;4.22;2.05;;;;;;;;;;5031698;28;20041;-80
2023/07/04 08:43:26;;;;;;;3.67;1.70;;;;;;;;;;5035601;28;20512;-80
2023/07/04 08:45:54;;;;;;;4.65;2.47;;;;;;;;;;5035911;28;20409;-79
2023/07/04 08:48:22;;;;;;;4.45;2.53;;;;;;;;;;5034846;28;20056;-78
2023/07/04 08:50:49;;;;;;;6.53;2.70;;;;;;;;;;5034851;28;20699;-80
2023/07/04 08:53:18;;;;;;;4.70;2.53;;;;;;;;;;5034030;28;20084;-80
2023/07/04 08:55:59;;;;;;;4.80;2.17;;;;;;;;;;5033683;28;20083;-80
2023/07/04 08:58:33;;;;;;;3.83;2.30;;;;;;;;;;5034977;28;20080;-80
2023/07/04 09:01:05;;;;;;;4.95;2.35;;;;;;;;;;5035564;28;20076;-79
2023/07/04 09:03:40;;;;;;;4.28;1.88;;;;;;;;;;5038293;28;20419;-80
2023/07/04 09:06:12;;;;;;;5.07;2.00;;;;;;;;;;5037513;28;20084;-80
2023/07/04 09:08:52;;;;;;;3.65;2.15;;;;;;;;;;5037813;28;20076;-79
2023/07/04 09:11:21;;;;;;;4.22;2.00;;;;;;;;;;5036173;28;20120;-80
2023/07/04 09:13:51;;;;;;;4.15;1.98;;;;;;;;;;5037674;28;20077;-79
2023/07/04 09:16:22;;;;;;;3.33;1.90;;;;;;;;;;5037255;28;20416;-79
2023/07/04 09:18:53;;;;;;;4.63;1.98;;;;;;;;;;5039630;28;20504;-81
2023/07/04 09:21:23;;;;;;;3.90;1.83;;;;;;;;;;5040940;28;20108;-80
2023/07/04 09:24:05;;;;;;;4.22;2.20;;;;;;;;;;5165037;27;20377;-61
2023/07/04 09:26:39;;;;;;;4.97;2.20;;;;;;;;;;5149275;27;20047;-58
2023/07/04 09:29:07;;;;;;;4.57;2.30;;;;;;;;;;5148019;27;20062;-54
2023/07/04 09:31:38;;;;;;;5.78;2.60;;;;;;;;;;5148154;27;20058;-59
2023/07/04 09:34:22;;;;;;;3.63;2.22;;;;;;;;;;5148747;27;20039;-58
2023/07/04 09:36:51;;;;;;;7.47;2.75;;;;;;;;;;5149103;27;20139;-61
2023/07/04 09:39:20;;;;;;;7.07;2.53;;;;;;;;;;5149199;27;20070;-62
2023/07/04 09:41:56;;;;;;;4.93;2.25;;;;;;;;;;5148440;27;20055;-61
2023/07/04 09:44:27;;;;;;;5.28;2.53;;;;;;;;;;5148658;27;20047;-58
2023/07/04 09:46:57;;;;;;;3.67;2.20;;;;;;;;;;5148558;27;20046;-56
2023/07/04 09:49:26;;;;;;;5.80;2.45;;;;;;;;;;5148749;27;20092;-58
2023/07/04 09:52:02;;;;;;;4.47;2.65;;;;;;;;;;5148387;27;20465;-60
2023/07/04 09:54:31;;;;;;;5.03;2.08;;;;;;;;;;5148037;27;20074;-61
2023/07/04 09:57:17;;;;;;;5.00;2.50;;;;;;;;;;5148206;27;20130;-60
2023/07/04 09:59:44;;;;;;;4.28;2.00;;;;;;;;;;5148369;27;20539;-61
2023/07/04 10:02:15;;;;;;;5.15;2.47;;;;;;;;;;5148070;27;20050;-58
2023/07/04 10:04:42;;;;;;;6.78;2.63;;;;;;;;;;5146694;27;20106;-60
2023/07/04 10:07:14;;;;;;;5.82;2.80;;;;;;;;;;5132609;27;20483;-63
2023/07/04 10:09:51;;;;;;;4.50;2.40;;;;;;;;;;5148624;27;20050;-60
2023/07/04 10:12:18;;;;;;;4.70;2.60;;;;;;;;;;5147883;27;20058;-59
2023/07/04 10:14:48;;;;;;;6.95;2.78;;;;;;;;;;5147859;27;20058;-60
2023/07/04 10:17:20;;;;;;;6.40;2.88;;;;;;;;;;5147765;27;20285;-60
2023/07/04 10:19:49;;;;;;;6.15;2.95;;;;;;;;;;5127736;28;20151;-59
2023/07/04 10:22:24;;;;;;;5.05;2.60;;;;;;;;;;5138220;27;20695;-59
2023/07/04 10:24:53;;;;;;;4.60;2.58;;;;;;;;;;5148470;27;20088;-59
2023/07/04 10:27:22;;;;;;;5.32;2.85;;;;;;;;;;5148481;27;20049;-60
2023/07/04 10:30:04;;;;;;;5.80;2.67;;;;;;;;;;5147633;27;20100;-58
2023/07/04 10:32:44;;;;;;;5.90;2.45;;;;;;;;;;5147590;27;20504;-58
2023/07/04 10:35:14;;;;;;;5.65;2.78;;;;;;;;;;5135075;27;20047;-61
2023/07/04 10:37:42;;;;;;;;;;;;;;;;;;5134389;27;20495;-58
2023/07/04 10:40:14;;;;;;;4.95;2.47;;;;;;;;;;5134088;27;19984;-60
2023/07/04 10:42:46;;;;;;;6.22;3.35;;;;;;;;;;5135052;27;20130;-60
2023/07/04 10:45:15;;;;;;;4.72;2.60;;;;;;;;;;5133849;27;20051;-57
2023/07/04 10:47:44;;;;;;;6.22;3.13;;;;;;;;;;5133082;27;20441;-60
2023/07/04 10:50:17;;;;;;;6.97;3.00;;;;;;;;;;5133362;27;20161;-60
2023/07/04 10:52:48;;;;;;;6.10;3.22;;;;;;;;;;5132705;27;20466;-58
2023/07/04 10:55:21;;;;;;;6.00;3.22;;;;;;;;;;5133546;27;20055;-60
2023/07/04 10:57:56;;;;;;;7.47;3.30;;;;;;;;;;5133005;27;20047;-60
2023/07/04 11:00:32;;;;;;;5.53;3.10;;;;;;;;;;5133813;27;20047;-60
2023/07/04 11:03:04;;;;;;;5.82;3.20;;;;;;;;;;5133144;27;20040;-58
2023/07/04 11:05:35;;;;;;;5.72;3.15;;;;;;;;;;5133074;27;20050;-59
2023/07/04 11:08:02;;;;;;;6.57;2.83;;;;;;;;;;5134931;27;20053;-58
2023/07/04 11:10:33;;;;;;;7.43;3.15;;;;;;;;;;5133453;27;20058;-59
2023/07/04 11:13:01;;;;;;;6.47;2.85;;;;;;;;;;5133375;27;20385;-61
2023/07/04 11:15:31;;;;;;;6.28;3.33;;;;;;;;;;5132789;27;20051;-62
2023/07/04 11:20:54;;;;;;;5.80;3.05;;;;;;;;;;5067460;28;20044;-58
2023/07/04 11:23:23;;;;;;;7.18;2.92;;;;;;;;;;5070567;28;20568;-59
2023/07/04 11:26:05;;;;;;;5.60;3.10;;;;;;;;;;5061604;28;20109;-67
2023/07/04 11:28:51;;;;;;;5.80;2.70;;;;;;;;;;5070287;28;20048;-59
2023/07/04 11:31:24;;;;;;;5.72;2.50;;;;;;;;;;5070966;28;20094;-57
2023/07/04 11:34:11;;;;;;;5.60;3.10;;;;;;;;;;5069182;28;20049;-59
2023/07/04 11:36:48;;;;;;;6.18;2.95;;;;;;;;;;5070834;28;20486;-59
2023/07/04 11:39:31;;;;;;;4.78;2.70;;;;;;;;;;5064006;28;20044;-65
2023/07/04 11:42:14;;;;;;;5.60;2.80;;;;;;;;;;5067550;28;20052;-59
2023/07/04 11:44:49;;;;;;;6.40;2.85;;;;;;;;;;5071448;28;20041;-58
2023/07/04 11:47:31;;;;;;;6.63;2.88;;;;;;;;;;5070357;28;20080;-59
2023/07/04 11:50:01;;;;;;;7.22;2.75;;;;;;;;;;5068092;28;20057;-59
2023/07/04 11:52:30;;;;;;;5.03;2.70;;;;;;;;;;5071107;28;20074;-59
2023/07/04 11:54:59;;;;;;;5.10;2.78;;;;;;;;;;5070842;28;20098;-60
2023/07/04 11:57:59;;;;;;;5.03;2.80;;;;;;;;;;5070589;28;20566;-59
2023/07/04 12:01:12;;;;;;;5.65;2.72;;;;;;;;;;5061315;28;20080;-58
2023/07/04 12:04:05;;;;;;;7.22;3.50;;;;;;;;;;5065619;28;20055;-59
2023/07/04 12:06:58;;;;;;;4.35;2.80;;;;;;;;;;5067534;28;20173;-59
2023/07/04 12:09:37;;;;;;;7.78;3.08;;;;;;;;;;5070826;28;20037;-60
2023/07/04 12:12:07;;;;;;;5.13;2.78;;;;;;;;;;5063090;28;20052;-60
2023/07/04 12:14:38;;;;;;;5.63;3.05;;;;;;;;;;5074057;28;20527;-59
2023/07/04 12:17:07;;;;;;;6.00;2.72;;;;;;;;;;5070828;28;20048;-60
2023/07/04 12:19:34;;;;;;;5.18;2.88;;;;;;;;;;5070455;28;20056;-59
2023/07/04 12:22:01;;;;;;;4.38;2.47;;;;;;;;;;5070300;28;20063;-60
2023/07/04 12:24:30;;;;;;;5.28;2.58;;;;;;;;;;5069622;28;20051;-60
2023/07/04 12:26:59;;;;;;;5.75;2.47;;;;;;;;;;5070374;28;20052;-60
2023/07/04 12:29:29;;;;;;;7.03;3.03;;;;;;;;;;5069459;28;20206;-58
2023/07/04 12:32:06;;;;;;;3.80;2.08;;;;;;;;;;5069606;28;20099;-58
2023/07/04 12:34:34;;;;;;;6.65;3.10;;;;;;;;;;5070615;28;20047;-57
2023/07/04 12:37:05;;;;;;;4.45;2.35;;;;;;;;;;5070576;28;20088;-60
2023/07/04 12:39:42;;;;;;;4.28;2.80;;;;;;;;;;5069914;28;20059;-59
2023/07/04 12:42:13;;;;;;;4.78;2.65;;;;;;;;;;5070773;28;20511;-60
2023/07/04 12:44:40;;;;;;;4.13;2.28;;;;;;;;;;5069020;28;20049;-59
2023/07/04 12:47:15;;;;;;;5.65;2.50;;;;;;;;;;5070246;28;20045;-59
2023/07/04 12:49:45;;;;;;;5.03;2.53;;;;;;;;;;5069368;28;20040;-59
2023/07/04 12:52:13;;;;;;;4.88;2.67;;;;;;;;;;5063600;28;20078;-60
2023/07/04 12:54:41;;;;;;;5.53;2.30;;;;;;;;;;5070075;28;20048;-60
2023/07/04 12:57:14;;;;;;;4.70;2.33;;;;;;;;;;5069687;28;20056;-59
2023/07/04 12:59:40;;;;;;;3.90;2.00;;;;;;;;;;5051643;28;20052;-59
2023/07/04 13:02:15;;;;;;;5.43;2.22;;;;;;;;;;5050229;28;20045;-60
2023/07/04 13:04:42;;;;;;;5.82;2.00;;;;;;;;;;5065489;28;20126;-59
2023/07/04 13:07:10;;;;;;;4.72;2.47;;;;;;;;;;5070256;28;20049;-59
2023/07/04 13:09:41;;;;;;;6.43;3.13;;;;;;;;;;5069877;28;20058;-59
2023/07/04 13:12:10;;;;;;;6.03;2.88;;;;;;;;;;5069927;28;20053;-59
2023/07/04 13:14:36;;;;;;;4.43;2.40;;;;;;;;;;5069754;28;20056;-60
2023/07/04 13:17:12;;;;;;;4.55;2.50;;;;;;;;;;5070127;28;20048;-59
2023/07/04 13:19:42;;;;;;;3.65;2.35;;;;;;;;;;5069918;28;20056;-60
2023/07/04 13:22:14;;;;;;;4.72;2.50;;;;;;;;;;5070058;28;20131;-57
2023/07/04 13:24:42;;;;;;;6.95;2.75;;;;;;;;;;5070048;28;20136;-59
2023/07/04 13:27:16;;;;;;;5.60;2.70;;;;;;;;;;5070220;28;20095;-59
2023/07/04 13:29:53;;;;;;;4.32;2.33;;;;;;;;;;5070035;28;20081;-60
2023/07/04 13:32:24;;;;;;;4.55;2.15;;;;;;;;;;5069920;28;20056;-60
2023/07/04 13:34:51;;;;;;;7.00;2.75;;;;;;;;;;5069944;28;20048;-60
2023/07/04 13:37:19;;;;;;;5.57;2.45;;;;;;;;;;5070039;28;20066;-60
2023/07/04 13:39:46;;;;;;;3.78;2.10;;;;;;;;;;5068227;28;20692;-60
2023/07/04 13:42:13;;;;;;;4.88;2.85;;;;;;;;;;5067658;28;20424;-60
2023/07/04 13:44:40;;;;;;;5.50;2.38;;;;;;;;;;5068816;28;20048;-60
2023/07/04 13:47:09;;;;;;;5.32;2.45;;;;;;;;;;5068830;28;20487;-60
2023/07/04 13:49:37;;;;;;;4.07;2.28;;;;;;;;;;5069246;28;20422;-59
2023/07/04 13:52:04;;;;;;;5.68;2.20;;;;;;;;;;5067900;28;20455;-59
2023/07/04 13:54:31;;;;;;;4.47;2.53;;;;;;;;;;5068973;28;20055;-60
2023/07/04 13:56:58;;;;;;;4.00;2.58;;;;;;;;;;5070015;28;20040;-64
2023/07/04 13:59:25;;;;;;;4.28;2.47;;;;;;;;;;5069670;28;20050;-60
2023/07/04 14:01:52;;;;;;;5.32;2.50;;;;;;;;;;5069551;28;20523;-60
2023/07/04 14:04:19;;;;;;;7.93;2.90;;;;;;;;;;5069141;28;20417;-62
2023/07/04 14:06:51;;;;;;;6.22;3.00;;;;;;;;;;5068025;28;20474;-60
2023/07/04 14:09:19;;;;;;;4.40;2.60;;;;;;;;;;5070055;28;20056;-61
2023/07/04 14:11:46;;;;;;;4.38;2.30;;;;;;;;;;5072731;28;20505;-60
2023/07/04 14:14:13;;;;;;;8.00;3.25;;;;;;;;;;5072576;28;20488;-61
2023/07/04 14:16:40;;;;;;;5.60;2.65;;;;;;;;;;5069886;28;20048;-61
2023/07/04 14:19:10;;;;;;;4.70;2.45;;;;;;;;;;5070063;28;20688;-62
2023/07/04 14:21:36;;;;;;;6.90;2.40;;;;;;;;;;5070826;28;20056;-61
2023/07/04 14:24:07;;;;;;;4.82;2.67;;;;;;;;;;5071718;28;20459;-61
2023/07/04 14:26:34;;;;;;;3.83;2.33;;;;;;;;;;5072323;28;20037;-57
2023/07/04 14:29:07;;;;;;;4.72;2.17;;;;;;;;;;5072190;28;20041;-61
2023/07/04 14:31:34;;;;;;;4.63;2.42;;;;;;;;;;5072562;28;20071;-60
2023/07/04 14:34:01;;;;;;;4.40;2.28;;;;;;;;;;5072802;28;20494;-62
2023/07/04 14:36:28;;;;;;;3.47;2.20;;;;;;;;;;5072556;28;20442;-62
2023/07/04 14:38:55;;;;;;;4.47;2.40;;;;;;;;;;5072541;28;20045;-62
2023/07/04 14:41:23;;;;;;;5.57;2.15;;;;;;;;;;5072724;28;20057;-60
2023/07/04 14:43:50;;;;;;;4.28;2.05;;;;;;;;;;5072909;28;20390;-61
2023/07/04 14:46:17;;;;;;;5.80;2.25;;;;;;;;;;5073536;28;20132;-61
2023/07/04 14:48:44;;;;;;;4.15;2.25;;;;;;;;;;5072865;28;20517;-61
2023/07/04 14:51:12;;;;;;;4.38;2.30;;;;;;;;;;5072836;28;20049;-63
2023/07/04 14:53:43;;;;;;;3.60;2.00;;;;;;;;;;5072736;28;20048;-63
2023/07/04 14:56:15;;;;;;;4.70;2.35;;;;;;;;;;5072374;28;20671;-61
2023/07/04 14:58:44;;;;;;;3.75;2.30;;;;;;;;;;5072467;28;20048;-64
2023/07/04 15:01:15;;;;;;;4.43;2.30;;;;;;;;;;5072178;28;20052;-62